Time,TemperatureF,DewpointF,PressureIn,WindDirection,WindDirectionDegrees,WindSpeedMPH,WindSpeedGustMPH,Humidity,HourlyPrecipIn,Conditions,Clouds,dailyrainin,SolarRadiationWatts/m^2,SoftwareType,DateUTC
2013-05-17 00:01:00,64.9,60.0,29.83,ESE,118,0.0,2.0,85,0.00,,,0.00,0,weatherlink.com 1.10,2013-05-17 05:01:00,
2013-05-17 00:16:00,64.5,60.0,29.84,ESE,118,0.0,2.0,86,0.00,,,0.00,0,weatherlink.com 1.10,2013-05-17 05:16:00,
2013-05-17 00:31:00,63.9,60.0,29.84,ESE,119,0.0,3.0,86,0.00,,,0.00,0,weatherlink.com 1.10,2013-05-17 05:31:00,
2013-05-17 00:46:00,63.6,60.0,29.83,ESE,118,0.0,3.0,87,0.00,,,0.00,0,weatherlink.com 1.10,2013-05-17 05:46:00,
2013-05-17 01:01:00,63.2,60.0,29.83,ESE,119,0.0,2.0,88,0.00,,,0.00,0,weatherlink.com 1.10,2013-05-17 06:01:00,
2013-05-17 01:16:00,62.9,60.0,29.83,ESE,119,0.0,3.0,89,0.00,,,0.00,0,weatherlink.com 1.10,2013-05-17 06:16:00,
2013-05-17 01:31:00,62.6,59.0,29.83,ESE,118,0.0,1.0,89,0.00,,,0.00,0,weatherlink.com 1.10,2013-05-17 06:31:00,
2013-05-17 01:46:00,62.3,59.0,29.83,ESE,119,0.0,0.0,89,0.00,,,0.00,0,weatherlink.com 1.10,2013-05-17 06:46:00,
2013-05-17 02:01:00,61.9,59.0,29.83,ESE,118,0.0,2.0,90,0.00,,,0.00,0,weatherlink.com 1.10,2013-05-17 07:01:00,
2013-05-17 02:16:00,61.7,59.0,29.82,ESE,118,2.0,3.0,90,0.00,,,0.00,0,weatherlink.com 1.10,2013-05-17 07:16:00,
2013-05-17 02:31:00,61.6,59.0,29.81,ESE,118,1.0,3.0,91,0.00,,,0.00,0,weatherlink.com 1.10,2013-05-17 07:31:00,
2013-05-17 02:46:00,61.5,59.0,29.81,ESE,117,1.0,7.0,92,0.00,,,0.00,0,weatherlink.com 1.10,2013-05-17 07:46:00,
2013-05-17 03:01:00,61.4,59.0,29.81,ESE,117,0.0,2.0,92,0.00,,,0.00,0,weatherlink.com 1.10,2013-05-17 08:01:00,
2013-05-17 03:17:00,61.1,59.0,29.82,ESE,117,0.0,1.0,92,0.00,,,0.00,0,weatherlink.com 1.10,2013-05-17 08:17:00,
2013-05-17 03:32:00,60.8,59.0,29.82,ESE,117,0.0,1.0,92,0.00,,,0.00,0,weatherlink.com 1.10,2013-05-17 08:32:00,
2013-05-17 03:47:00,60.5,58.0,29.82,ESE,117,0.0,2.0,92,0.00,,,0.00,0,weatherlink.com 1.10,2013-05-17 08:47:00,
2013-05-17 04:02:00,60.4,58.0,29.82,ESE,117,0.0,2.0,92,0.00,,,0.00,0,weatherlink.com 1.10,2013-05-17 09:02:00,
2013-05-17 04:17:00,60.5,59.0,29.83,ESE,117,0.0,3.0,93,0.00,,,0.00,0,weatherlink.com 1.10,2013-05-17 09:17:00,
2013-05-17 04:32:00,60.3,58.0,29.83,ESE,117,0.0,1.0,93,0.00,,,0.00,0,weatherlink.com 1.10,2013-05-17 09:32:00,
2013-05-17 04:47:00,59.9,58.0,29.83,ESE,117,0.0,1.0,93,0.00,,,0.00,0,weatherlink.com 1.10,2013-05-17 09:47:00,
2013-05-17 05:02:00,59.8,58.0,29.83,ESE,117,0.0,1.0,93,0.00,,,0.00,0,weatherlink.com 1.10,2013-05-17 10:02:00,
2013-05-17 05:17:00,60.0,58.0,29.82,ESE,117,0.0,3.0,93,0.00,,,0.00,0,weatherlink.com 1.10,2013-05-17 10:17:00,
2013-05-17 05:32:00,59.9,58.0,29.82,ESE,117,1.0,2.0,94,0.00,,,0.00,0,weatherlink.com 1.10,2013-05-17 10:32:00,
2013-05-17 05:47:00,59.9,58.0,29.82,ESE,117,0.0,3.0,94,0.00,,,0.00,0,weatherlink.com 1.10,2013-05-17 10:47:00,
2013-05-17 06:02:00,59.9,58.0,29.83,ESE,117,0.0,0.0,94,0.00,,,0.00,0,weatherlink.com 1.10,2013-05-17 11:02:00,
2013-05-17 06:17:00,59.8,58.0,29.84,ESE,117,0.0,0.0,94,0.00,,,0.00,9,weatherlink.com 1.10,2013-05-17 11:17:00,
2013-05-17 06:32:00,59.8,58.0,29.85,ESE,117,0.0,0.0,94,0.00,,,0.00,23,weatherlink.com 1.10,2013-05-17 11:32:00,
2013-05-17 06:47:00,59.9,58.0,29.85,ESE,117,0.0,0.0,94,0.00,,,0.00,33,weatherlink.com 1.10,2013-05-17 11:47:00,
2013-05-17 07:02:00,60.5,59.0,29.86,ESE,117,0.0,0.0,94,0.00,,,0.00,39,weatherlink.com 1.10,2013-05-17 12:02:00,
2013-05-17 07:17:00,61.3,60.0,29.87,ESE,119,0.0,4.0,95,0.00,,,0.00,44,weatherlink.com 1.10,2013-05-17 12:17:00,
2013-05-17 07:32:00,61.8,60.0,29.88,ESE,119,0.0,3.0,94,0.00,,,0.00,63,weatherlink.com 1.10,2013-05-17 12:32:00,
2013-05-17 07:47:00,62.3,61.0,29.89,ESE,119,1.0,3.0,95,0.00,,,0.00,95,weatherlink.com 1.10,2013-05-17 12:47:00,
2013-05-17 08:02:00,62.8,61.0,29.89,ESE,119,0.0,2.0,95,0.00,,,0.00,86,weatherlink.com 1.10,2013-05-17 13:02:00,
2013-05-17 08:17:00,63.2,62.0,29.90,ESE,119,0.0,2.0,94,0.00,,,0.00,93,weatherlink.com 1.10,2013-05-17 13:17:00,
2013-05-17 08:32:00,63.3,62.0,29.90,ESE,119,0.0,3.0,94,0.00,,,0.00,83,weatherlink.com 1.10,2013-05-17 13:32:00,
2013-05-17 08:47:00,63.6,62.0,29.90,ESE,119,0.0,3.0,94,0.00,,,0.00,100,weatherlink.com 1.10,2013-05-17 13:47:00,
2013-05-17 09:02:00,63.9,62.0,29.90,ESE,119,1.0,2.0,94,0.00,,,0.00,132,weatherlink.com 1.10,2013-05-17 14:02:00,
2013-05-17 09:17:00,64.2,62.0,29.91,ESE,119,0.0,2.0,93,0.00,,,0.00,158,weatherlink.com 1.10,2013-05-17 14:17:00,
2013-05-17 09:32:00,64.5,63.0,29.91,SE,125,2.0,3.0,93,0.00,,,0.00,139,weatherlink.com 1.10,2013-05-17 14:32:00,
2013-05-17 09:47:00,64.7,62.0,29.91,SE,126,1.0,4.0,91,0.00,,,0.00,155,weatherlink.com 1.10,2013-05-17 14:47:00,
2013-05-17 10:02:00,65.0,62.0,29.91,SE,126,0.0,3.0,91,0.00,,,0.00,172,weatherlink.com 1.10,2013-05-17 15:02:00,
2013-05-17 10:17:00,65.2,62.0,29.90,SE,126,1.0,3.0,90,0.00,,,0.00,213,weatherlink.com 1.10,2013-05-17 15:17:00,
2013-05-17 10:32:00,65.5,62.0,29.90,ESE,123,1.0,5.0,89,0.00,,,0.00,178,weatherlink.com 1.10,2013-05-17 15:32:00,
2013-05-17 10:47:00,66.2,63.0,29.90,SE,124,0.0,4.0,89,0.00,,,0.00,221,weatherlink.com 1.10,2013-05-17 15:47:00,
2013-05-17 11:02:00,66.9,63.0,29.90,ESE,117,0.0,4.0,87,0.00,,,0.00,308,weatherlink.com 1.10,2013-05-17 16:02:00,
2013-05-17 11:17:00,68.3,64.0,29.91,ESE,117,2.0,4.0,86,0.00,,,0.00,418,weatherlink.com 1.10,2013-05-17 16:17:00,
2013-05-17 11:32:00,68.9,64.0,29.90,ESE,120,2.0,5.0,84,0.00,,,0.00,533,weatherlink.com 1.10,2013-05-17 16:32:00,
2013-05-17 11:47:00,70.0,64.0,29.90,ESE,116,0.0,3.0,80,0.00,,,0.00,543,weatherlink.com 1.10,2013-05-17 16:47:00,
2013-05-17 12:03:00,70.7,64.0,29.90,ESE,117,1.0,3.0,78,0.00,,,0.00,643,weatherlink.com 1.10,2013-05-17 17:03:00,
2013-05-17 12:18:00,72.0,64.0,29.90,ESE,117,1.0,3.0,76,0.00,,,0.00,673,weatherlink.com 1.10,2013-05-17 17:18:00,
2013-05-17 12:33:00,71.7,64.0,29.89,SE,128,2.0,4.0,77,0.00,,,0.00,1213,weatherlink.com 1.10,2013-05-17 17:33:00,
2013-05-17 12:48:00,72.9,64.0,29.89,SE,127,0.0,4.0,73,0.00,,,0.00,462,weatherlink.com 1.10,2013-05-17 17:48:00,
2013-05-17 13:03:00,73.2,64.0,29.89,SE,128,0.0,4.0,74,0.00,,,0.00,468,weatherlink.com 1.10,2013-05-17 18:03:00,
2013-05-17 13:18:00,73.3,64.0,29.88,SE,128,1.0,3.0,72,0.00,,,0.00,443,weatherlink.com 1.10,2013-05-17 18:18:00,
2013-05-17 13:33:00,73.3,63.0,29.88,SE,127,3.0,4.0,70,0.00,,,0.00,454,weatherlink.com 1.10,2013-05-17 18:33:00,
2013-05-17 13:48:00,74.3,64.0,29.88,SE,127,2.0,3.0,71,0.00,,,0.00,418,weatherlink.com 1.10,2013-05-17 18:48:00,
2013-05-17 14:03:00,74.3,63.0,29.88,SE,126,4.0,4.0,68,0.00,,,0.00,508,weatherlink.com 1.10,2013-05-17 19:03:00,
2013-05-17 14:18:00,74.8,64.0,29.87,SE,126,2.0,6.0,68,0.00,,,0.00,454,weatherlink.com 1.10,2013-05-17 19:18:00,
2013-05-17 14:33:00,75.3,63.0,29.87,SE,126,2.0,5.0,65,0.00,,,0.00,550,weatherlink.com 1.10,2013-05-17 19:33:00,
2013-05-17 14:48:00,74.8,63.0,29.87,SE,125,2.0,6.0,67,0.00,,,0.00,540,weatherlink.com 1.10,2013-05-17 19:48:00,
2013-05-17 15:03:00,75.4,64.0,29.87,ESE,121,0.0,4.0,67,0.00,,,0.00,399,weatherlink.com 1.10,2013-05-17 20:03:00,
2013-05-17 15:18:00,75.3,63.0,29.86,ESE,110,0.0,5.0,65,0.00,,,0.00,346,weatherlink.com 1.10,2013-05-17 20:18:00,
2013-05-17 15:33:00,75.2,62.0,29.86,ESE,111,0.0,5.0,64,0.00,,,0.00,260,weatherlink.com 1.10,2013-05-17 20:33:00,
2013-05-17 15:48:00,76.2,64.0,29.85,ESE,109,0.0,4.0,65,0.00,,,0.00,979,weatherlink.com 1.10,2013-05-17 20:48:00,
2013-05-17 16:03:00,76.0,62.0,29.85,ESE,113,0.0,7.0,63,0.00,,,0.00,276,weatherlink.com 1.10,2013-05-17 21:03:00,
2013-05-17 16:18:00,76.6,63.0,29.85,ESE,113,0.0,8.0,63,0.00,,,0.00,304,weatherlink.com 1.10,2013-05-17 21:18:00,
2013-05-17 16:33:00,76.0,63.0,29.85,ESE,109,7.0,7.0,64,0.00,,,0.00,274,weatherlink.com 1.10,2013-05-17 21:33:00,
2013-05-17 16:48:00,75.2,62.0,29.84,ESE,109,3.0,5.0,64,0.00,,,0.00,225,weatherlink.com 1.10,2013-05-17 21:48:00,
2013-05-17 17:03:00,75.2,62.0,29.84,ESE,108,3.0,4.0,63,0.00,,,0.00,156,weatherlink.com 1.10,2013-05-17 22:03:00,
2013-05-17 17:18:00,74.9,62.0,29.84,ESE,109,1.0,5.0,64,0.00,,,0.00,158,weatherlink.com 1.10,2013-05-17 22:18:00,
2013-05-17 17:33:00,76.5,63.0,29.84,ESE,109,4.0,4.0,64,0.00,,,0.00,316,weatherlink.com 1.10,2013-05-17 22:33:00,
2013-05-17 17:48:00,78.1,63.0,29.84,ESE,117,4.0,9.0,60,0.00,,,0.00,559,weatherlink.com 1.10,2013-05-17 22:48:00,
2013-05-17 18:03:00,76.3,62.0,29.84,ESE,116,2.0,5.0,61,0.00,,,0.00,431,weatherlink.com 1.10,2013-05-17 23:03:00,
2013-05-17 18:18:00,75.8,62.0,29.84,ESE,120,1.0,9.0,63,0.00,,,0.00,360,weatherlink.com 1.10,2013-05-17 23:18:00,
2013-05-17 18:33:00,75.9,61.0,29.84,ESE,118,2.0,4.0,61,0.00,,,0.00,288,weatherlink.com 1.10,2013-05-17 23:33:00,
2013-05-17 18:48:00,76.3,62.0,29.84,ESE,119,0.0,4.0,62,0.00,,,0.00,260,weatherlink.com 1.10,2013-05-17 23:48:00,
2013-05-17 19:03:00,76.0,62.0,29.84,ESE,119,1.0,4.0,62,0.00,,,0.00,221,weatherlink.com 1.10,2013-05-18 00:03:00,
2013-05-17 19:18:00,76.0,62.0,29.84,ESE,117,0.0,4.0,62,0.00,,,0.00,160,weatherlink.com 1.10,2013-05-18 00:18:00,
2013-05-17 19:33:00,75.6,62.0,29.85,ESE,117,2.0,4.0,62,0.00,,,0.00,113,weatherlink.com 1.10,2013-05-18 00:33:00,
2013-05-17 19:48:00,75.0,62.0,29.85,ESE,117,2.0,3.0,64,0.00,,,0.00,32,weatherlink.com 1.10,2013-05-18 00:48:00,
2013-05-17 20:03:00,74.5,61.0,29.84,ESE,117,0.0,2.0,64,0.00,,,0.00,21,weatherlink.com 1.10,2013-05-18 01:03:00,
2013-05-17 20:18:00,73.9,62.0,29.84,ESE,117,0.0,1.0,66,0.00,,,0.00,9,weatherlink.com 1.10,2013-05-18 01:18:00,
2013-05-17 20:33:00,73.2,62.0,29.84,ESE,117,0.0,1.0,67,0.00,,,0.00,0,weatherlink.com 1.10,2013-05-18 01:33:00,
2013-05-17 20:48:00,72.5,61.0,29.84,ESE,117,0.0,0.0,68,0.00,,,0.00,0,weatherlink.com 1.10,2013-05-18 01:48:00,
2013-05-17 21:03:00,71.6,61.0,29.85,ESE,117,0.0,1.0,70,0.00,,,0.00,0,weatherlink.com 1.10,2013-05-18 02:03:00,
2013-05-17 21:18:00,70.8,61.0,29.85,ESE,117,0.0,0.0,71,0.00,,,0.00,0,weatherlink.com 1.10,2013-05-18 02:18:00,
2013-05-17 21:33:00,70.0,61.0,29.86,ESE,117,0.0,0.0,72,0.00,,,0.00,0,weatherlink.com 1.10,2013-05-18 02:33:00,
2013-05-17 21:48:00,69.3,61.0,29.85,ESE,117,0.0,0.0,74,0.00,,,0.00,0,weatherlink.com 1.10,2013-05-18 02:48:00,
2013-05-17 22:03:00,68.4,61.0,29.86,ESE,117,0.0,2.0,76,0.00,,,0.00,0,weatherlink.com 1.10,2013-05-18 03:03:00,
2013-05-17 22:18:00,67.9,61.0,29.87,ESE,117,0.0,2.0,78,0.00,,,0.00,0,weatherlink.com 1.10,2013-05-18 03:18:00,
2013-05-17 22:33:00,67.4,61.0,29.87,ESE,117,0.0,0.0,79,0.00,,,0.00,0,weatherlink.com 1.10,2013-05-18 03:33:00,
2013-05-17 22:48:00,67.1,60.0,29.88,ESE,117,0.0,0.0,79,0.00,,,0.00,0,weatherlink.com 1.10,2013-05-18 03:48:00,
2013-05-17 23:03:00,66.6,60.0,29.88,ESE,117,0.0,0.0,80,0.00,,,0.00,0,weatherlink.com 1.10,2013-05-18 04:03:00,
2013-05-17 23:18:00,66.1,60.0,29.88,ESE,117,0.0,0.0,81,0.00,,,0.00,0,weatherlink.com 1.10,2013-05-18 04:18:00,
2013-05-17 23:33:00,65.5,60.0,29.88,ESE,117,0.0,0.0,83,0.00,,,0.00,0,weatherlink.com 1.10,2013-05-18 04:33:00,
2013-05-17 23:48:00,65.1,61.0,29.88,ESE,117,0.0,1.0,85,0.00,,,0.00,0,weatherlink.com 1.10,2013-05-18 04:48:00,